createdAt,value
2023-03-11T09:14:02.627Z,98110.63
2023-03-11T16:42:10.597Z,99256.00
2023-03-11T16:45:16.402Z,99256.00
2023-03-11T16:48:23.082Z,99254.00
2023-03-11T16:51:28.360Z,99270.72
2023-03-11T16:54:31.472Z,99277.53
2023-03-11T16:57:34.726Z,99283.69
2023-03-11T17:00:38.365Z,99283.69
2023-03-11T17:03:43.700Z,99298.63
2023-03-11T17:06:47.408Z,99291.41
2023-03-11T17:09:54.233Z,99301.00
2023-03-11T17:13:00.387Z,99313.16
2023-03-11T17:16:04.869Z,99296.31
2023-03-11T17:19:10.714Z,99330.53
2023-03-11T17:22:19.352Z,99336.66
2023-03-11T17:25:26.002Z,99338.44
2023-03-11T17:28:30.675Z,99352.41
2023-03-11T17:31:35.006Z,99338.28
2023-03-11T17:34:40.250Z,99376.06
2023-03-11T17:37:43.490Z,99355.97
2023-03-11T17:40:47.843Z,99376.94
2023-03-11T17:43:52.895Z,99333.63
2023-03-11T17:46:56.819Z,99384.66
2023-03-11T17:50:05.135Z,99366.16
2023-03-11T17:53:10.112Z,99371.47
2023-03-11T17:56:19.514Z,99359.84
2023-03-11T17:59:24.130Z,99412.31
2023-03-11T18:02:28.068Z,99414.06
2023-03-11T18:05:32.404Z,99430.56
2023-03-11T18:08:36.623Z,99434.00
2023-03-11T18:11:41.351Z,99430.47
2023-03-11T18:14:44.760Z,99442.81
2023-03-11T18:17:49.766Z,99441.00
2023-03-11T18:20:53.340Z,99452.97
2023-03-11T18:24:01.250Z,99453.88
2023-03-11T18:27:05.024Z,99461.56
2023-03-11T18:30:12.044Z,99465.03
2023-03-11T18:33:16.187Z,99471.88
2023-03-11T18:36:23.635Z,99481.44
2023-03-11T18:39:29.620Z,99479.63
2023-03-11T18:42:34.307Z,99490.97
2023-03-11T18:45:40.557Z,99489.16
2023-03-11T18:48:44.988Z,99497.13
2023-03-11T18:51:48.046Z,99498.72
2023-03-11T18:54:52.381Z,99517.75
2023-03-11T18:57:56.077Z,99520.53
2023-03-11T19:01:09.340Z,99534.47
2023-03-11T19:04:13.385Z,99522.84
2023-03-11T19:07:17.898Z,99529.03
2023-03-11T19:10:21.636Z,99525.50
2023-03-11T19:13:37.113Z,99536.91
2023-03-11T19:16:48.868Z,99536.81
2023-03-11T19:19:52.761Z,99541.00
2023-03-11T19:22:56.359Z,99540.94
2023-03-11T19:26:03.312Z,99551.31
2023-03-11T19:29:09.598Z,99558.34
2023-03-11T19:32:14.126Z,99558.25
2023-03-11T19:35:19.128Z,99570.47
2023-03-11T19:38:37.607Z,99580.03
